createdAt,value
2018-12-09T00:00:45.865Z,98860.88
2018-12-09T00:03:13.506Z,98860.44
2018-12-09T00:05:41.084Z,98846.69
2018-12-09T00:08:08.681Z,98842.37
2018-12-09T00:10:36.436Z,98829.48
2018-12-09T00:13:04.087Z,98823.46
2018-12-09T00:15:31.752Z,98815.74
2018-12-09T00:17:59.415Z,98811.45
2018-12-09T00:20:27.093Z,98801.16
2018-12-09T00:22:54.748Z,98787.80
2018-12-09T00:25:22.421Z,98779.20
2018-12-09T00:27:50.035Z,98779.64
2018-12-09T00:30:17.626Z,98759.88
2018-12-09T00:32:45.300Z,98767.20
2018-12-09T00:35:12.959Z,98753.88
2018-12-09T00:37:40.626Z,98745.73
2018-12-09T00:40:08.281Z,98747.05
2018-12-09T00:42:43.291Z,98726.86
2018-12-09T00:45:06.076Z,98729.41
2018-12-09T00:47:33.656Z,98710.06
2018-12-09T00:50:01.303Z,98706.63
2018-12-09T00:52:28.951Z,98698.48
2018-12-09T00:54:56.610Z,98689.44
2018-12-09T00:57:24.258Z,98682.58
2018-12-09T00:59:51.940Z,98675.28
2018-12-09T01:02:19.600Z,98671.41
2018-12-09T01:04:47.263Z,98651.20
2018-12-09T01:07:14.928Z,98655.95
2018-12-09T01:09:42.597Z,98650.80
2018-12-09T01:12:10.248Z,98633.17
2018-12-09T01:14:37.924Z,98630.16
2018-12-09T01:17:05.575Z,98631.04
2018-12-09T01:19:33.247Z,98618.55
2018-12-09T01:22:01.544Z,98612.09
2018-12-09T01:24:29.188Z,98606.91
2018-12-09T01:26:56.816Z,98588.84
2018-12-09T01:29:24.517Z,98594.41
2018-12-09T01:31:52.181Z,98587.08
2018-12-09T01:34:19.844Z,98581.04
2018-12-09T01:36:47.500Z,98577.17
2018-12-09T01:39:15.516Z,98567.66
2018-12-09T01:41:43.137Z,98567.22
2018-12-09T01:44:10.730Z,98518.84
2018-12-09T01:46:38.363Z,98552.58
2018-12-09T01:49:05.952Z,98543.11
2018-12-09T01:51:33.580Z,98528.03
2018-12-09T01:54:08.626Z,98520.69
2018-12-09T01:56:36.812Z,98512.91
2018-12-09T01:59:04.460Z,98515.48
2018-12-09T02:01:32.112Z,98501.25
2018-12-09T02:03:59.780Z,98501.65
2018-12-09T02:06:27.419Z,98499.91
2018-12-09T02:08:55.108Z,98496.00
2018-12-09T02:11:22.759Z,98480.06
2018-12-09T02:13:50.434Z,98480.91
2018-12-09T02:16:18.096Z,98481.71
2018-12-09T02:18:47.913Z,98477.83
2018-12-09T02:21:15.563Z,98461.45
2018-12-09T02:23:43.227Z,98453.66
2018-12-09T02:26:10.895Z,98452.77
2018-12-09T02:28:38.661Z,98445.41
2018-12-09T02:31:06.325Z,98436.81
2018-12-09T02:33:34.009Z,98435.92
2018-12-09T02:36:01.641Z,98439.35
2018-12-09T02:38:44.060Z,98432.84
2018-12-09T02:41:11.722Z,98426.83
2018-12-09T02:43:39.383Z,98416.90
2018-12-09T02:46:07.055Z,98428.52
2018-12-09T02:48:34.803Z,98416.05
2018-12-09T02:51:02.893Z,98422.06
2018-12-09T02:53:30.649Z,98415.20
2018-12-09T02:55:58.324Z,98410.04
2018-12-09T02:58:25.976Z,98404.43
2018-12-09T03:00:53.650Z,98396.68
2018-12-09T03:03:21.310Z,98391.07
2018-12-09T03:05:48.955Z,98400.11
2018-12-09T03:08:16.636Z,98391.92
2018-12-09T03:10:44.223Z,98373.39
2018-12-09T03:13:11.819Z,98372.98
2018-12-09T03:15:39.512Z,98378.11
2018-12-09T03:18:07.176Z,98369.11
2018-12-09T03:20:34.836Z,98370.40
2018-12-09T03:23:02.500Z,98358.78
2018-12-09T03:25:30.164Z,98365.23
2018-12-09T03:27:57.826Z,98365.23
2018-12-09T03:30:25.492Z,98364.34
2018-12-09T03:32:53.163Z,98349.73
2018-12-09T03:35:20.776Z,98358.73
2018-12-09T03:37:48.360Z,98353.13
2018-12-09T03:40:15.990Z,98354.42
2018-12-09T03:42:43.567Z,98352.71
2018-12-09T03:45:11.361Z,98352.27
2018-12-09T03:47:39.019Z,98357.39
2018-12-09T03:50:07.512Z,98352.22
2018-12-09T03:52:35.167Z,98352.66
2018-12-09T03:55:02.836Z,98349.63
2018-12-09T03:57:30.491Z,98346.59
2018-12-09T03:59:58.091Z,98338.40
2018-12-09T04:02:25.714Z,98335.81
2018-12-09T04:04:53.384Z,98339.69
2018-12-09T04:07:21.046Z,98329.75
2018-12-09T04:09:48.709Z,98331.06
2018-12-09T04:12:16.384Z,98328.88
2018-12-09T04:14:43.965Z,98327.14
2018-12-09T04:17:11.590Z,98323.70
2018-12-09T04:19:39.168Z,98321.08
2018-12-09T04:22:06.821Z,98321.06
2018-12-09T04:24:34.479Z,98322.31
2018-12-09T04:27:02.140Z,98324.03
2018-12-09T04:29:29.808Z,98314.98
2018-12-09T04:31:57.480Z,98317.13
2018-12-09T04:34:25.133Z,98310.61
2018-12-09T04:36:52.788Z,98309.76
2018-12-09T04:39:20.460Z,98317.91
2018-12-09T04:41:48.130Z,98301.12
2018-12-09T04:44:15.794Z,98309.71
2018-12-09T04:46:43.399Z,98306.27
2018-12-09T04:49:11.004Z,98304.09
2018-12-09T04:51:50.870Z,98311.83
2018-12-09T04:54:18.460Z,98310.10
2018-12-09T04:56:46.071Z,98303.23
2018-12-09T04:59:17.223Z,98309.25
2018-12-09T05:01:45.500Z,98309.70
2018-12-09T05:04:13.184Z,98325.20
2018-12-09T05:06:40.835Z,98312.74
2018-12-09T05:09:08.499Z,98320.09
2018-12-09T05:11:36.152Z,98324.83
2018-12-09T05:14:04.196Z,98325.33
2018-12-09T05:16:31.806Z,98326.19
2018-12-09T05:18:59.449Z,98327.97
2018-12-09T05:21:27.051Z,98327.14
2018-12-09T05:23:54.671Z,98331.92
2018-12-09T05:26:22.635Z,98332.83
2018-12-09T05:28:50.308Z,98349.63
2018-12-09T05:31:17.958Z,98352.67
2018-12-09T05:33:45.627Z,98365.19
2018-12-09T05:36:13.302Z,98372.14
2018-12-09T05:38:41.477Z,98378.61
2018-12-09T05:41:09.123Z,98383.48
2018-12-09T05:43:36.793Z,98394.62
2018-12-09T05:46:04.377Z,98404.16
2018-12-09T05:48:32.024Z,98420.14
2018-12-09T05:51:00.292Z,98424.11
2018-12-09T05:53:27.957Z,98420.69
2018-12-09T05:55:55.615Z,98434.98
2018-12-09T05:58:25.158Z,98450.55
2018-12-09T06:00:52.739Z,98444.59
2018-12-09T06:03:20.817Z,98459.72
2018-12-09T06:05:48.515Z,98464.08
2018-12-09T06:08:16.180Z,98471.45
2018-12-09T06:10:43.848Z,98480.11
2018-12-09T06:13:11.461Z,98481.41
2018-12-09T06:15:39.480Z,98484.47
2018-12-09T06:18:07.143Z,98485.75
2018-12-09T06:20:34.899Z,98493.94
2018-12-09T06:23:02.568Z,98497.40
2018-12-09T06:25:30.240Z,98503.00
2018-12-09T06:27:58.407Z,98512.47
2018-12-09T06:30:26.081Z,98515.48
2018-12-09T06:32:53.730Z,98518.91
2018-12-09T06:35:21.405Z,98521.09
2018-12-09T06:37:49.060Z,98522.37
2018-12-09T06:40:16.680Z,98532.70
2018-12-09T06:42:44.384Z,98533.13
2018-12-09T06:45:12.062Z,98536.16
2018-12-09T06:47:39.708Z,98541.31
2018-12-09T06:50:07.359Z,98548.64
2018-12-09T06:52:35.045Z,98552.09
2018-12-09T06:55:02.644Z,98559.39
2018-12-09T06:57:30.264Z,98562.38
2018-12-09T06:59:57.863Z,98562.39
2018-12-09T07:02:25.493Z,98565.41
2018-12-09T07:04:53.154Z,98570.13
2018-12-09T07:07:21.215Z,98580.44
2018-12-09T07:09:48.876Z,98585.59
2018-12-09T07:12:16.521Z,98589.02
2018-12-09T07:14:44.207Z,98592.92
2018-12-09T07:17:11.821Z,98593.77
2018-12-09T07:19:39.403Z,98597.64
2018-12-09T07:22:07.090Z,98598.95
2018-12-09T07:24:34.850Z,98603.23
2018-12-09T07:27:02.515Z,98614.41
2018-12-09T07:29:30.186Z,98615.69
2018-12-09T07:31:57.857Z,98622.14
2018-12-09T07:34:25.503Z,98589.59
2018-12-09T07:36:53.116Z,98632.88
2018-12-09T07:39:20.736Z,98637.59
2018-12-09T07:41:48.405Z,98639.73
2018-12-09T07:44:16.152Z,98644.02
2018-12-09T07:46:43.923Z,98642.31
2018-12-09T07:49:11.598Z,98648.32
2018-12-09T07:51:39.203Z,98647.88
2018-12-09T07:54:06.907Z,98648.30
2018-12-09T07:56:34.585Z,98656.04
2018-12-09T07:59:02.163Z,98659.03
2018-12-09T08:01:29.805Z,98658.59
2018-12-09T08:03:57.443Z,98669.32
2018-12-09T08:06:25.015Z,98670.61
2018-12-09T08:08:52.701Z,98677.06
2018-12-09T08:11:20.354Z,98674.89
2018-12-09T08:13:48.012Z,98690.79
2018-12-09T08:16:15.675Z,98698.94
2018-12-09T08:18:43.331Z,98698.06
2018-12-09T08:21:10.910Z,98700.62
2018-12-09T08:23:38.559Z,98700.19
2018-12-09T08:26:06.219Z,98707.89
2018-12-09T08:28:33.889Z,98714.76
2018-12-09T08:31:01.548Z,98716.05
2018-12-09T08:33:29.225Z,98714.77
2018-12-09T08:35:56.878Z,98719.92
2018-12-09T08:38:24.540Z,98718.63
2018-12-09T08:40:52.210Z,98727.22
2018-12-09T08:43:19.864Z,98736.28
2018-12-09T08:45:47.534Z,98740.56
2018-12-09T08:48:15.129Z,98742.27
2018-12-09T08:50:42.747Z,98744.44
2018-12-09T08:53:10.414Z,98750.45
2018-12-09T08:55:38.067Z,98744.41
2018-12-09T08:58:05.745Z,98756.03
2018-12-09T09:00:33.409Z,98756.88
2018-12-09T09:03:01.164Z,98754.73
2018-12-09T09:05:28.771Z,98764.65
2018-12-09T09:07:56.361Z,98770.66
2018-12-09T09:10:23.960Z,98767.22
2018-12-09T09:12:51.547Z,98769.80
2018-12-09T09:15:19.143Z,98771.98
2018-12-09T09:17:46.741Z,98772.83
2018-12-09T09:20:14.407Z,98781.84
2018-12-09T09:22:42.060Z,98777.94
2018-12-09T09:25:09.713Z,98784.38
2018-12-09T09:27:37.342Z,98780.06
2018-12-09T09:30:06.276Z,98776.19
2018-12-09T09:32:33.855Z,98777.05
2018-12-09T09:35:01.502Z,98779.63
2018-12-09T09:37:29.128Z,98791.21
2018-12-09T09:39:56.824Z,98789.92
2018-12-09T09:42:24.493Z,98787.78
2018-12-09T09:44:52.144Z,98790.80
2018-12-09T09:47:19.739Z,98792.92
2018-12-09T09:49:47.466Z,98800.20
2018-12-09T09:52:15.147Z,98809.69
2018-12-09T09:54:42.724Z,98793.72
2018-12-09T09:57:10.319Z,98802.73
2018-12-09T09:59:38.034Z,98800.56
2018-12-09T10:02:05.679Z,98800.54
2018-12-09T10:04:33.346Z,98805.68
2018-12-09T10:07:01.012Z,98809.52
2018-12-09T10:09:28.987Z,98815.95
2018-12-09T10:11:56.943Z,98813.78
2018-12-09T10:14:24.616Z,98818.04
2018-12-09T10:16:52.276Z,98816.31
2018-12-09T10:19:19.950Z,98811.55
2018-12-09T10:21:47.549Z,98814.58
2018-12-09T10:24:15.127Z,98815.46
2018-12-09T10:26:42.718Z,98820.59
2018-12-09T10:29:10.387Z,98818.86
2018-12-09T10:31:38.048Z,98827.47
2018-12-09T10:34:05.727Z,98822.30
2018-12-09T10:36:33.377Z,98816.69
2018-12-09T10:39:01.654Z,98824.00
2018-12-09T10:41:29.263Z,98822.65
2018-12-09T10:43:57.071Z,98822.65
2018-12-09T10:46:25.042Z,98821.32
2018-12-09T10:48:52.821Z,98829.92
2018-12-09T10:51:20.674Z,98828.60
2018-12-09T10:53:48.644Z,98817.81
2018-12-09T10:56:16.512Z,98829.42
2018-12-09T10:58:44.328Z,98830.27
2018-12-09T11:01:17.982Z,98832.41
2018-12-09T11:03:45.938Z,98833.26
2018-12-09T11:06:14.480Z,98844.45
2018-12-09T11:08:42.404Z,98840.98
2018-12-09T11:11:10.180Z,98835.81
2018-12-09T11:13:37.934Z,98835.37
2018-12-09T11:16:05.650Z,98836.63
2018-12-09T11:18:33.360Z,98829.72
2018-12-09T11:21:01.039Z,98828.39
2018-12-09T11:23:28.664Z,98836.96
2018-12-09T11:25:56.269Z,98841.69
2018-12-09T11:28:23.933Z,98837.77
2018-12-09T11:30:51.585Z,98841.24
2018-12-09T11:33:19.357Z,98843.80
2018-12-09T11:35:47.025Z,98834.30
2018-12-09T11:38:14.692Z,98833.85
2018-12-09T11:40:42.276Z,98837.28
2018-12-09T11:43:09.879Z,98843.72
2018-12-09T11:45:37.560Z,98839.43
2018-12-09T11:48:05.225Z,98844.20
2018-12-09T11:50:32.879Z,98842.05
2018-12-09T11:53:00.545Z,98850.25
2018-12-09T11:55:28.306Z,98848.11
2018-12-09T11:57:55.975Z,98849.45
2018-12-09T12:00:23.640Z,98846.45
2018-12-09T12:02:51.296Z,98848.19
2018-12-09T12:05:18.931Z,98845.20
2018-12-09T12:07:46.768Z,98846.90
2018-12-09T12:10:14.404Z,98848.19
2018-12-09T12:12:42.065Z,98847.34
2018-12-09T12:15:09.720Z,98850.78
2018-12-09T12:17:37.389Z,98850.36
2018-12-09T12:20:07.012Z,98853.36
2018-12-09T12:22:34.747Z,98855.06
2018-12-09T12:25:02.434Z,98856.35
2018-12-09T12:27:30.022Z,98852.47
2018-12-09T12:29:57.850Z,98854.58
2018-12-09T12:32:25.668Z,98858.02
2018-12-09T12:34:53.268Z,98869.66
2018-12-09T12:37:20.858Z,98862.30
2018-12-09T12:39:48.591Z,98865.33
2018-12-09T12:42:16.277Z,98870.06
2018-12-09T12:44:43.929Z,98876.52
2018-12-09T12:47:11.561Z,98876.12
2018-12-09T12:49:39.220Z,98873.13
2018-12-09T12:52:06.839Z,98882.21
2018-12-09T12:54:34.512Z,98876.63
2018-12-09T12:57:02.094Z,98883.16
2018-12-09T12:59:29.677Z,98884.05
2018-12-09T13:01:57.361Z,98889.69
2018-12-09T13:04:24.979Z,98890.98
2018-12-09T13:06:53.102Z,98896.59
2018-12-09T13:09:20.765Z,98904.34
2018-12-09T13:11:48.433Z,98902.23
2018-12-09T13:14:16.093Z,98902.23
2018-12-09T13:16:43.761Z,98909.98
2018-12-09T13:19:11.539Z,98918.63
2018-12-09T13:21:39.379Z,98915.19
2018-12-09T13:24:07.151Z,98912.16
2018-12-09T13:26:34.912Z,98915.62
2018-12-09T13:29:02.487Z,98914.36
2018-12-09T13:31:30.089Z,98918.68
2018-12-09T13:33:57.690Z,98925.17
2018-12-09T13:36:25.356Z,98923.45
2018-12-09T13:38:52.928Z,98931.66
2018-12-09T13:41:20.581Z,98933.83
2018-12-09T13:43:48.217Z,98945.86
2018-12-09T13:46:15.909Z,98952.32
2018-12-09T13:48:43.572Z,98959.64
2018-12-09T13:51:11.232Z,98960.95
2018-12-09T13:53:38.902Z,98957.50
2018-12-09T13:56:06.655Z,98962.66
2018-12-09T13:58:36.641Z,98964.83
2018-12-09T14:01:04.336Z,98972.99
2018-12-09T14:03:32.104Z,98972.17
2018-12-09T14:05:59.864Z,98982.93
2018-12-09T14:08:27.527Z,98978.63
2018-12-09T14:10:55.152Z,98982.53
2018-12-09T14:13:22.921Z,98980.40
2018-12-09T14:15:50.625Z,98982.14
2018-12-09T14:18:18.283Z,98979.57
2018-12-09T14:20:45.968Z,98983.05
2018-12-09T14:23:13.623Z,98987.78
2018-12-09T14:25:41.290Z,98989.53
2018-12-09T14:28:08.915Z,98999.00
2018-12-09T14:30:36.755Z,98993.00
2018-12-09T14:33:04.587Z,98996.87
2018-12-09T14:35:32.243Z,98991.27
2018-12-09T14:37:59.886Z,99001.16
2018-12-09T14:40:27.463Z,98997.73
2018-12-09T14:42:55.186Z,99004.66
2018-12-09T14:45:22.945Z,99009.38
2018-12-09T14:47:50.549Z,99010.69
2018-12-09T14:50:18.265Z,99018.00
2018-12-09T14:52:46.574Z,99015.44
2018-12-09T14:55:14.283Z,99010.27
2018-12-09T14:57:41.880Z,99014.99
2018-12-09T15:00:09.517Z,99011.11
2018-12-09T15:02:37.232Z,99020.58
2018-12-09T15:05:05.416Z,99027.91
2018-12-09T15:07:33.173Z,99024.87
2018-12-09T15:10:08.455Z,99028.75
2018-12-09T15:12:30.736Z,99027.46
2018-12-09T15:14:58.394Z,99032.22
2018-12-09T15:17:26.280Z,99035.66
2018-12-09T15:19:53.956Z,99040.80
2018-12-09T15:22:21.811Z,99039.94
2018-12-09T15:24:49.445Z,99046.40
2018-12-09T15:27:17.041Z,99040.36
2018-12-09T15:29:45.627Z,99038.67
2018-12-09T15:32:13.292Z,99038.22
2018-12-09T15:34:40.952Z,99040.80
2018-12-09T15:37:08.626Z,99038.22
2018-12-09T15:39:36.277Z,99048.11
2018-12-09T15:42:04.053Z,99035.20
2018-12-09T15:44:31.807Z,99036.94
2018-12-09T15:47:00.904Z,99046.83
2018-12-09T15:49:28.568Z,99050.27
2018-12-09T15:51:56.144Z,99047.24
2018-12-09T15:54:23.994Z,99051.11
2018-12-09T15:56:51.673Z,99049.42
2018-12-09T15:59:20.840Z,99048.13
2018-12-09T16:01:48.731Z,99055.44
2018-12-09T16:04:16.606Z,99057.56
2018-12-09T16:06:44.179Z,99071.78
2018-12-09T16:09:11.933Z,99067.48
2018-12-09T16:11:39.574Z,99071.78
2018-12-09T16:14:07.248Z,99075.66
2018-12-09T16:16:34.839Z,99073.91
2018-12-09T16:19:02.501Z,99079.52
2018-12-09T16:21:30.135Z,99079.52
2018-12-09T16:23:57.761Z,99083.38
2018-12-09T16:26:25.451Z,99085.53
2018-12-09T16:28:53.126Z,99086.82
2018-12-09T16:31:20.780Z,99096.30
2018-12-09T16:33:48.453Z,99089.41
2018-12-09T16:36:16.099Z,99090.28
2018-12-09T16:38:43.768Z,99089.84
2018-12-09T16:41:11.372Z,99093.70
2018-12-09T16:43:38.996Z,99102.75
2018-12-09T16:46:06.756Z,99096.74
2018-12-09T16:48:34.429Z,99100.16
2018-12-09T16:51:02.087Z,99101.91
2018-12-09T16:53:29.743Z,99110.06
2018-12-09T16:55:57.403Z,99114.79
2018-12-09T16:58:25.063Z,99112.64
2018-12-09T17:00:52.696Z,99122.53
2018-12-09T17:03:20.272Z,99136.30
2018-12-09T17:05:47.965Z,99135.00
2018-12-09T17:08:15.625Z,99143.19
2018-12-09T17:10:43.198Z,99143.62
2018-12-09T17:13:10.844Z,99151.78
2018-12-09T17:15:38.516Z,99153.94
2018-12-09T17:18:06.168Z,99157.80
2018-12-09T17:20:33.838Z,99164.70
2018-12-09T17:23:01.496Z,99169.02
2018-12-09T17:25:29.156Z,99175.88
2018-12-09T17:27:56.829Z,99172.45
2018-12-09T17:30:24.497Z,99178.05
2018-12-09T17:32:52.101Z,99179.77
2018-12-09T17:35:19.671Z,99182.34
2018-12-09T17:37:47.677Z,99183.61
2018-12-09T17:40:15.328Z,99190.07
2018-12-09T17:42:43.014Z,99195.23
2018-12-09T17:45:10.663Z,99194.38
2018-12-09T17:47:38.527Z,99203.41
2018-12-09T17:50:07.732Z,99205.55
2018-12-09T17:52:35.400Z,99202.54
2018-12-09T17:55:02.975Z,99212.02
2018-12-09T17:57:30.582Z,99210.73
2018-12-09T17:59:58.169Z,99218.04
2018-12-09T18:02:25.771Z,99219.75
2018-12-09T18:04:53.410Z,99219.33
2018-12-09T18:07:20.992Z,99218.47
2018-12-09T18:09:48.623Z,99227.52
2018-12-09T18:12:16.207Z,99230.10
2018-12-09T18:14:43.803Z,99222.77
2018-12-09T18:17:11.384Z,99221.04
2018-12-09T18:19:38.979Z,99231.36
2018-12-09T18:22:06.631Z,99243.85
2018-12-09T18:24:34.278Z,99247.27
2018-12-09T18:27:01.847Z,99248.58
2018-12-09T18:29:29.518Z,99240.40
2018-12-09T18:31:57.342Z,99261.47
2018-12-09T18:34:25.361Z,99264.48
2018-12-09T18:36:53.026Z,99278.67
2018-12-09T18:39:20.695Z,99269.63
2018-12-09T18:41:48.354Z,99278.66
2018-12-09T18:44:15.996Z,99277.77
2018-12-09T18:46:43.578Z,99284.23
2018-12-09T18:49:11.180Z,99284.67
2018-12-09T18:51:38.797Z,99296.68
2018-12-09T18:54:06.456Z,99296.26
2018-12-09T18:56:34.115Z,99294.97
2018-12-09T18:59:01.785Z,99297.53
2018-12-09T19:01:29.433Z,99311.72
2018-12-09T19:03:57.104Z,99303.99
2018-12-09T19:06:24.767Z,99313.88
2018-12-09T19:08:52.427Z,99320.77
2018-12-09T19:11:20.083Z,99326.78
2018-12-09T19:13:47.719Z,99342.28
2018-12-09T19:16:16.279Z,99341.00
2018-12-09T19:18:43.902Z,99340.98
2018-12-09T19:21:11.562Z,99342.73
2018-12-09T19:23:39.232Z,99350.91
2018-12-09T19:26:06.893Z,99365.08
2018-12-09T19:28:34.477Z,99370.69
2018-12-09T19:31:02.112Z,99373.27
2018-12-09T19:33:29.767Z,99373.26
2018-12-09T19:35:57.435Z,99390.47
2018-12-09T19:38:25.101Z,99393.88
2018-12-09T19:40:52.771Z,99394.74
2018-12-09T19:43:20.437Z,99405.03
2018-12-09T19:45:48.083Z,99402.85
2018-12-09T19:48:15.653Z,99410.98
2018-12-09T19:50:43.307Z,99413.12
2018-12-09T19:53:10.971Z,99419.14
2018-12-09T19:55:38.625Z,99421.30
2018-12-09T19:58:06.306Z,99428.14
2018-12-09T20:00:33.959Z,99422.14
2018-12-09T20:03:01.577Z,99435.91
2018-12-09T20:05:29.194Z,99440.64
2018-12-09T20:07:56.848Z,99453.95
2018-12-09T20:10:24.517Z,99449.66
2018-12-09T20:12:52.171Z,99462.13
2018-12-09T20:15:19.836Z,99467.69
2018-12-09T20:17:47.499Z,99471.98
2018-12-09T20:20:15.160Z,99479.27
2018-12-09T20:22:42.828Z,99485.72
2018-12-09T20:25:10.484Z,99486.12
2018-12-09T20:27:38.143Z,99492.58
2018-12-09T20:30:08.063Z,99504.64
2018-12-09T20:32:35.755Z,99505.48
2018-12-09T20:35:03.610Z,99505.43
2018-12-09T20:37:31.257Z,99511.91
2018-12-09T20:39:59.088Z,99520.95
2018-12-09T20:42:26.788Z,99529.10
2018-12-09T20:44:54.443Z,99554.43
2018-12-09T20:47:22.125Z,99543.72
2018-12-09T20:49:49.773Z,99552.28
2018-12-09T20:52:17.645Z,99551.00
2018-12-09T20:54:45.322Z,99552.67
2018-12-09T20:57:12.968Z,99563.80
2018-12-09T20:59:40.559Z,99560.28
2018-12-09T21:02:08.209Z,99571.00
2018-12-09T21:04:35.869Z,99572.30
2018-12-09T21:07:03.533Z,99584.32
2018-12-09T21:09:31.179Z,99589.48
2018-12-09T21:11:58.830Z,99600.25
2018-12-09T21:14:26.518Z,99604.17
2018-12-09T21:16:54.167Z,99592.13
2018-12-09T21:19:21.773Z,99606.83
2018-12-09T21:21:49.351Z,99609.45
2018-12-09T21:24:17.111Z,99621.09
2018-12-09T21:26:44.682Z,99625.44
2018-12-09T21:29:12.380Z,99647.39
2018-12-09T21:31:39.956Z,99645.23
2018-12-09T21:34:07.590Z,99654.67
2018-12-09T21:36:35.175Z,99655.96
2018-12-09T21:39:03.173Z,99661.06
2018-12-09T21:41:30.791Z,99673.50
2018-12-09T21:43:58.559Z,99688.09
2018-12-09T21:46:26.239Z,99690.58
2018-12-09T21:48:53.983Z,99707.28
2018-12-09T21:51:21.658Z,99707.62
2018-12-09T21:53:49.280Z,99721.73
2018-12-09T21:56:16.916Z,99728.97
2018-12-09T21:58:44.540Z,99734.92
2018-12-09T22:01:12.204Z,99745.66
2018-12-09T22:03:39.861Z,99752.92
2018-12-09T22:06:09.137Z,99741.33
2018-12-09T22:08:36.911Z,99766.24
2018-12-09T22:11:04.600Z,99770.11
2018-12-09T22:13:32.260Z,99781.70
2018-12-09T22:15:59.920Z,99797.99
2018-12-09T22:18:27.583Z,99796.23
2018-12-09T22:20:55.247Z,99805.66
2018-12-09T22:23:22.843Z,99810.34
2018-12-09T22:25:50.477Z,99803.35
2018-12-09T22:28:18.141Z,99815.34
2018-12-09T22:30:45.787Z,99820.06
2018-12-09T22:33:13.372Z,99823.88
2018-12-09T22:35:41.025Z,99841.48
2018-12-09T22:38:08.681Z,99851.72
2018-12-09T22:40:36.281Z,99848.75
2018-12-09T22:43:03.856Z,99851.75
2018-12-09T22:45:31.580Z,99880.48
2018-12-09T22:47:59.151Z,99876.15
2018-12-09T22:50:26.797Z,99883.41
2018-12-09T22:52:54.452Z,99889.33
2018-12-09T22:55:22.090Z,99897.00
2018-12-09T22:57:50.000Z,99905.08
2018-12-09T23:00:21.437Z,99903.30
2018-12-09T23:02:54.629Z,99918.67
2018-12-09T23:05:22.251Z,99919.44
2018-12-09T23:07:52.758Z,99921.96
2018-12-09T23:10:20.586Z,99926.16
2018-12-09T23:12:48.243Z,99929.50
2018-12-09T23:15:15.906Z,99934.55
2018-12-09T23:17:43.568Z,99937.02
2018-12-09T23:20:11.232Z,99935.59
2018-12-09T23:22:38.910Z,99937.21
2018-12-09T23:25:06.571Z,99942.73
2018-12-09T23:27:34.177Z,99950.78
2018-12-09T23:30:01.769Z,99951.16
2018-12-09T23:32:29.457Z,99950.73
2018-12-09T23:34:57.045Z,99954.15
2018-12-09T23:37:24.671Z,99949.02
2018-12-09T23:39:52.344Z,99949.92
2018-12-09T23:42:19.996Z,99948.69
2018-12-09T23:44:47.770Z,99958.22
2018-12-09T23:47:15.518Z,99956.14
2018-12-09T23:49:43.101Z,99953.69
2018-12-09T23:52:10.757Z,99958.14
2018-12-09T23:54:38.407Z,99963.77
2018-12-09T23:57:06.075Z,99968.50
2018-12-09T23:59:33.738Z,99968.55
